Orlando, Florida
Traffic Map
Current Weather Conditions
Orlando, Florida
Clear
Clear
19°
Feels Like: 19°
Wind Chill: 19° Ceiling: Unl
Heat Index: 19° Visibility: 10mi
Dew Point: 14° Wind: 9mph
Humidity: 73% Direction: 350° (N)
Pressure: 30.07in Gusts: 0mph
Raw Report DataKORL 211253Z 35008KT 10SM CLR 19/14 A3007 RMK AO2 SLP185 T01890139
Traffic Incident Summary
Active as of:
Severity:
Category:
InformationThere was an issue retrieving the traffic information for this location. Please try a different location or try again shortly.
Advertisements
At Last! Intellicast now available for iPhone and Android